sensor_id;sensor_type;location;lat;lon;timestamp;P1;durP1;ratioP1;P2;durP2;ratioP2
1262;SDS011;62267;50.112;8.704;2023-02-01T00:00:02;5.87;;;4.90;;
1262;SDS011;62267;50.112;8.704;2023-02-01T00:02:30;6.70;;;5.30;;
1262;SDS011;62267;50.112;8.704;2023-02-01T00:04:58;5.23;;;4.73;;
1262;SDS011;62267;50.112;8.704;2023-02-01T00:07:25;6.67;;;5.67;;
1262;SDS011;62267;50.112;8.704;2023-02-01T00:09:53;5.50;;;5.00;;
1262;SDS011;62267;50.112;8.704;2023-02-01T00:12:20;7.20;;;5.60;;
1262;SDS011;62267;50.112;8.704;2023-02-01T00:14:48;5.60;;;4.70;;
1262;SDS011;62267;50.112;8.704;2023-02-01T00:17:16;6.03;;;5.23;;
1262;SDS011;62267;50.112;8.704;2023-02-01T00:19:43;5.07;;;4.67;;
1262;SDS011;62267;50.112;8.704;2023-02-01T00:22:11;8.97;;;5.50;;
1262;SDS011;62267;50.112;8.704;2023-02-01T00:24:38;5.90;;;5.27;;
1262;SDS011;62267;50.112;8.704;2023-02-01T00:27:06;5.70;;;4.83;;
1262;SDS011;62267;50.112;8.704;2023-02-01T00:29:33;6.60;;;5.90;;
1262;SDS011;62267;50.112;8.704;2023-02-01T00:32:00;5.87;;;5.37;;
1262;SDS011;62267;50.112;8.704;2023-02-01T00:34:28;5.70;;;4.90;;
1262;SDS011;62267;50.112;8.704;2023-02-01T00:36:55;6.90;;;6.20;;
1262;SDS011;62267;50.112;8.704;2023-02-01T00:39:23;6.60;;;5.57;;
1262;SDS011;62267;50.112;8.704;2023-02-01T00:41:54;5.83;;;5.23;;
1262;SDS011;62267;50.112;8.704;2023-02-01T00:44:22;5.50;;;5.00;;
1262;SDS011;62267;50.112;8.704;2023-02-01T00:46:50;7.43;;;5.50;;
1262;SDS011;62267;50.112;8.704;2023-02-01T00:49:18;7.83;;;5.00;;
1262;SDS011;62267;50.112;8.704;2023-02-01T00:51:45;7.13;;;4.80;;
1262;SDS011;62267;50.112;8.704;2023-02-01T00:54:14;6.43;;;5.87;;
1262;SDS011;62267;50.112;8.704;2023-02-01T00:56:41;5.87;;;5.27;;
1262;SDS011;62267;50.112;8.704;2023-02-01T00:59:12;6.73;;;5.47;;
1262;SDS011;62267;50.112;8.704;2023-02-01T01:01:39;5.90;;;5.20;;
1262;SDS011;62267;50.112;8.704;2023-02-01T01:04:06;7.10;;;6.37;;
1262;SDS011;62267;50.112;8.704;2023-02-01T01:06:35;7.07;;;5.83;;
1262;SDS011;62267;50.112;8.704;2023-02-01T01:09:03;8.13;;;6.27;;
1262;SDS011;62267;50.112;8.704;2023-02-01T01:11:34;8.10;;;6.07;;
1262;SDS011;62267;50.112;8.704;2023-02-01T01:14:03;17.03;;;6.90;;
1262;SDS011;62267;50.112;8.704;2023-02-01T01:16:31;9.07;;;6.43;;
1262;SDS011;62267;50.112;8.704;2023-02-01T01:18:59;10.33;;;6.90;;
1262;SDS011;62267;50.112;8.704;2023-02-01T01:21:28;8.90;;;6.30;;
1262;SDS011;62267;50.112;8.704;2023-02-01T01:23:56;6.37;;;5.77;;
1262;SDS011;62267;50.112;8.704;2023-02-01T01:26:25;7.17;;;6.20;;
1262;SDS011;62267;50.112;8.704;2023-02-01T01:28:54;7.20;;;6.50;;
1262;SDS011;62267;50.112;8.704;2023-02-01T01:31:22;7.90;;;6.93;;
1262;SDS011;62267;50.112;8.704;2023-02-01T01:33:51;10.03;;;7.10;;
1262;SDS011;62267;50.112;8.704;2023-02-01T01:36:19;9.80;;;6.40;;
1262;SDS011;62267;50.112;8.704;2023-02-01T01:38:46;6.87;;;6.00;;
1262;SDS011;62267;50.112;8.704;2023-02-01T01:41:18;8.80;;;6.83;;
1262;SDS011;62267;50.112;8.704;2023-02-01T01:43:48;8.03;;;7.20;;
1262;SDS011;62267;50.112;8.704;2023-02-01T01:46:17;6.93;;;6.23;;
1262;SDS011;62267;50.112;8.704;2023-02-01T01:48:46;9.20;;;7.30;;
1262;SDS011;62267;50.112;8.704;2023-02-01T01:51:17;9.33;;;7.30;;
1262;SDS011;62267;50.112;8.704;2023-02-01T01:53:47;9.13;;;6.60;;
1262;SDS011;62267;50.112;8.704;2023-02-01T01:56:19;7.40;;;6.70;;
1262;SDS011;62267;50.112;8.704;2023-02-01T01:58:49;8.90;;;7.53;;
1262;SDS011;62267;50.112;8.704;2023-02-01T02:01:17;8.23;;;7.30;;
1262;SDS011;62267;50.112;8.704;2023-02-01T02:03:44;9.60;;;7.23;;
1262;SDS011;62267;50.112;8.704;2023-02-01T02:06:24;12.50;;;8.23;;
1262;SDS011;62267;50.112;8.704;2023-02-01T02:08:54;8.80;;;7.70;;
1262;SDS011;62267;50.112;8.704;2023-02-01T02:11:21;10.80;;;8.00;;
1262;SDS011;62267;50.112;8.704;2023-02-01T02:13:51;10.23;;;8.03;;
1262;SDS011;62267;50.112;8.704;2023-02-01T02:16:24;8.57;;;7.50;;
1262;SDS011;62267;50.112;8.704;2023-02-01T02:26:54;11.90;;;8.43;;
1262;SDS011;62267;50.112;8.704;2023-02-01T02:34:37;12.67;;;8.10;;
1262;SDS011;62267;50.112;8.704;2023-02-01T02:39:49;11.03;;;8.23;;
1262;SDS011;62267;50.112;8.704;2023-02-01T02:42:25;9.93;;;7.73;;
1262;SDS011;62267;50.112;8.704;2023-02-01T02:45:17;9.40;;;7.80;;
1262;SDS011;62267;50.112;8.704;2023-02-01T02:53:35;9.70;;;8.33;;
1262;SDS011;62267;50.112;8.704;2023-02-01T02:56:24;14.60;;;8.40;;
1262;SDS011;62267;50.112;8.704;2023-02-01T02:59:12;9.13;;;8.23;;
1262;SDS011;62267;50.112;8.704;2023-02-01T03:02:00;16.20;;;8.33;;
1262;SDS011;62267;50.112;8.704;2023-02-01T03:04:46;12.33;;;9.10;;
1262;SDS011;62267;50.112;8.704;2023-02-01T03:07:15;11.47;;;8.67;;
1262;SDS011;62267;50.112;8.704;2023-02-01T03:10:05;10.27;;;7.80;;
1262;SDS011;62267;50.112;8.704;2023-02-01T03:12:36;14.57;;;7.70;;
1262;SDS011;62267;50.112;8.704;2023-02-01T03:15:39;14.00;;;9.40;;
1262;SDS011;62267;50.112;8.704;2023-02-01T03:18:16;8.87;;;7.03;;
1262;SDS011;62267;50.112;8.704;2023-02-01T03:20:46;11.13;;;8.23;;
1262;SDS011;62267;50.112;8.704;2023-02-01T03:23:16;8.87;;;7.33;;
1262;SDS011;62267;50.112;8.704;2023-02-01T03:25:44;8.60;;;6.90;;
1262;SDS011;62267;50.112;8.704;2023-02-01T03:28:13;9.50;;;7.90;;
1262;SDS011;62267;50.112;8.704;2023-02-01T03:30:43;10.07;;;7.70;;
1262;SDS011;62267;50.112;8.704;2023-02-01T03:33:13;12.07;;;6.90;;
1262;SDS011;62267;50.112;8.704;2023-02-01T03:35:54;10.80;;;7.70;;
1262;SDS011;62267;50.112;8.704;2023-02-01T03:38:31;10.53;;;8.17;;
1262;SDS011;62267;50.112;8.704;2023-02-01T03:41:08;11.30;;;7.57;;
1262;SDS011;62267;50.112;8.704;2023-02-01T03:43:39;9.33;;;8.40;;
1262;SDS011;62267;50.112;8.704;2023-02-01T03:46:11;10.53;;;7.10;;
1262;SDS011;62267;50.112;8.704;2023-02-01T03:48:39;12.10;;;6.30;;
1262;SDS011;62267;50.112;8.704;2023-02-01T03:51:10;6.33;;;5.73;;
1262;SDS011;62267;50.112;8.704;2023-02-01T03:53:37;6.50;;;5.80;;
1262;SDS011;62267;50.112;8.704;2023-02-01T03:56:07;8.00;;;6.77;;
1262;SDS011;62267;50.112;8.704;2023-02-01T03:58:37;10.10;;;5.43;;
1262;SDS011;62267;50.112;8.704;2023-02-01T04:01:06;6.80;;;5.90;;
1262;SDS011;62267;50.112;8.704;2023-02-01T04:03:36;8.17;;;5.63;;
1262;SDS011;62267;50.112;8.704;2023-02-01T04:06:04;8.30;;;6.03;;
1262;SDS011;62267;50.112;8.704;2023-02-01T04:08:32;11.93;;;5.93;;
1262;SDS011;62267;50.112;8.704;2023-02-01T04:10:59;9.53;;;5.80;;
1262;SDS011;62267;50.112;8.704;2023-02-01T04:13:26;6.60;;;5.97;;
1262;SDS011;62267;50.112;8.704;2023-02-01T04:15:53;8.93;;;6.63;;
1262;SDS011;62267;50.112;8.704;2023-02-01T04:18:23;8.33;;;6.30;;
1262;SDS011;62267;50.112;8.704;2023-02-01T04:20:52;9.20;;;6.87;;
1262;SDS011;62267;50.112;8.704;2023-02-01T04:23:20;8.57;;;6.37;;
1262;SDS011;62267;50.112;8.704;2023-02-01T04:25:48;11.97;;;7.57;;
1262;SDS011;62267;50.112;8.704;2023-02-01T04:28:15;9.20;;;6.70;;
1262;SDS011;62267;50.112;8.704;2023-02-01T04:30:43;6.90;;;6.20;;
1262;SDS011;62267;50.112;8.704;2023-02-01T04:33:12;8.33;;;7.00;;
1262;SDS011;62267;50.112;8.704;2023-02-01T04:35:40;7.90;;;6.30;;
1262;SDS011;62267;50.112;8.704;2023-02-01T04:38:07;11.93;;;6.63;;
1262;SDS011;62267;50.112;8.704;2023-02-01T04:40:35;10.20;;;6.70;;
1262;SDS011;62267;50.112;8.704;2023-02-01T04:43:04;7.80;;;6.17;;
1262;SDS011;62267;50.112;8.704;2023-02-01T04:45:31;11.97;;;6.40;;
1262;SDS011;62267;50.112;8.704;2023-02-01T04:47:58;9.30;;;6.80;;
1262;SDS011;62267;50.112;8.704;2023-02-01T04:50:25;6.87;;;6.17;;
1262;SDS011;62267;50.112;8.704;2023-02-01T04:52:53;8.40;;;6.90;;
1262;SDS011;62267;50.112;8.704;2023-02-01T04:55:20;9.87;;;6.40;;
1262;SDS011;62267;50.112;8.704;2023-02-01T04:57:48;9.63;;;6.70;;
1262;SDS011;62267;50.112;8.704;2023-02-01T05:00:16;8.07;;;5.90;;
1262;SDS011;62267;50.112;8.704;2023-02-01T05:02:45;8.57;;;6.63;;
1262;SDS011;62267;50.112;8.704;2023-02-01T05:05:15;9.30;;;6.67;;
1262;SDS011;62267;50.112;8.704;2023-02-01T05:07:43;9.27;;;7.07;;
1262;SDS011;62267;50.112;8.704;2023-02-01T05:10:12;10.30;;;7.87;;
1262;SDS011;62267;50.112;8.704;2023-02-01T05:12:39;11.33;;;7.27;;
1262;SDS011;62267;50.112;8.704;2023-02-01T05:15:25;10.07;;;6.40;;
1262;SDS011;62267;50.112;8.704;2023-02-01T05:17:52;8.03;;;6.53;;
1262;SDS011;62267;50.112;8.704;2023-02-01T05:20:19;7.97;;;6.90;;
1262;SDS011;62267;50.112;8.704;2023-02-01T05:22:47;7.93;;;6.80;;
1262;SDS011;62267;50.112;8.704;2023-02-01T05:25:14;7.63;;;5.90;;
1262;SDS011;62267;50.112;8.704;2023-02-01T05:27:42;8.80;;;6.30;;
1262;SDS011;62267;50.112;8.704;2023-02-01T05:30:10;7.67;;;6.87;;
1262;SDS011;62267;50.112;8.704;2023-02-01T05:32:37;8.03;;;6.20;;
1262;SDS011;62267;50.112;8.704;2023-02-01T05:35:05;10.47;;;6.20;;
1262;SDS011;62267;50.112;8.704;2023-02-01T05:37:33;8.37;;;6.87;;
1262;SDS011;62267;50.112;8.704;2023-02-01T05:40:00;7.03;;;6.20;;
1262;SDS011;62267;50.112;8.704;2023-02-01T05:42:28;14.67;;;7.57;;
1262;SDS011;62267;50.112;8.704;2023-02-01T05:44:56;8.50;;;6.57;;
1262;SDS011;62267;50.112;8.704;2023-02-01T05:47:24;10.30;;;5.13;;
1262;SDS011;62267;50.112;8.704;2023-02-01T05:49:52;8.60;;;5.90;;
1262;SDS011;62267;50.112;8.704;2023-02-01T05:52:19;8.93;;;5.77;;
1262;SDS011;62267;50.112;8.704;2023-02-01T05:54:47;12.67;;;5.53;;
1262;SDS011;62267;50.112;8.704;2023-02-01T05:57:14;11.50;;;6.40;;
1262;SDS011;62267;50.112;8.704;2023-02-01T05:59:41;9.10;;;5.70;;
1262;SDS011;62267;50.112;8.704;2023-02-01T06:02:11;5.77;;;4.50;;
1262;SDS011;62267;50.112;8.704;2023-02-01T06:04:38;11.70;;;5.53;;
1262;SDS011;62267;50.112;8.704;2023-02-01T06:07:06;6.50;;;5.53;;
1262;SDS011;62267;50.112;8.704;2023-02-01T06:09:34;9.40;;;5.60;;
1262;SDS011;62267;50.112;8.704;2023-02-01T06:12:03;10.70;;;5.53;;
1262;SDS011;62267;50.112;8.704;2023-02-01T06:14:30;8.30;;;5.47;;
1262;SDS011;62267;50.112;8.704;2023-02-01T06:16:57;14.83;;;6.27;;
1262;SDS011;62267;50.112;8.704;2023-02-01T06:19:25;10.77;;;5.03;;
1262;SDS011;62267;50.112;8.704;2023-02-01T06:21:53;8.13;;;5.80;;
1262;SDS011;62267;50.112;8.704;2023-02-01T06:24:20;11.70;;;5.67;;
1262;SDS011;62267;50.112;8.704;2023-02-01T06:26:47;6.13;;;5.00;;
1262;SDS011;62267;50.112;8.704;2023-02-01T06:29:14;6.03;;;4.43;;
1262;SDS011;62267;50.112;8.704;2023-02-01T06:31:41;7.77;;;5.20;;
1262;SDS011;62267;50.112;8.704;2023-02-01T06:34:09;10.27;;;5.10;;
1262;SDS011;62267;50.112;8.704;2023-02-01T06:36:36;6.07;;;5.07;;
1262;SDS011;62267;50.112;8.704;2023-02-01T06:39:04;9.60;;;4.70;;
1262;SDS011;62267;50.112;8.704;2023-02-01T06:41:31;9.83;;;5.47;;
1262;SDS011;62267;50.112;8.704;2023-02-01T06:44:00;6.57;;;4.50;;
1262;SDS011;62267;50.112;8.704;2023-02-01T06:46:29;11.67;;;6.87;;
1262;SDS011;62267;50.112;8.704;2023-02-01T06:48:56;9.83;;;5.43;;
1262;SDS011;62267;50.112;8.704;2023-02-01T06:51:24;11.10;;;5.53;;
1262;SDS011;62267;50.112;8.704;2023-02-01T06:53:52;10.77;;;4.90;;
1262;SDS011;62267;50.112;8.704;2023-02-01T06:56:20;11.93;;;5.77;;
1262;SDS011;62267;50.112;8.704;2023-02-01T06:58:47;6.93;;;4.80;;
1262;SDS011;62267;50.112;8.704;2023-02-01T07:01:15;12.13;;;5.40;;
1262;SDS011;62267;50.112;8.704;2023-02-01T07:03:46;6.13;;;4.60;;
1262;SDS011;62267;50.112;8.704;2023-02-01T07:06:14;13.77;;;6.47;;
1262;SDS011;62267;50.112;8.704;2023-02-01T07:08:41;11.30;;;5.30;;
1262;SDS011;62267;50.112;8.704;2023-02-01T07:11:10;12.80;;;5.70;;
1262;SDS011;62267;50.112;8.704;2023-02-01T07:13:38;12.10;;;4.77;;
1262;SDS011;62267;50.112;8.704;2023-02-01T07:16:06;9.73;;;4.70;;
1262;SDS011;62267;50.112;8.704;2023-02-01T07:18:34;10.07;;;5.77;;
1262;SDS011;62267;50.112;8.704;2023-02-01T07:21:01;8.10;;;5.20;;
1262;SDS011;62267;50.112;8.704;2023-02-01T07:23:28;16.53;;;5.90;;
1262;SDS011;62267;50.112;8.704;2023-02-01T07:25:59;7.80;;;4.70;;
1262;SDS011;62267;50.112;8.704;2023-02-01T07:28:30;8.90;;;4.87;;
1262;SDS011;62267;50.112;8.704;2023-02-01T07:31:02;10.00;;;5.30;;
1262;SDS011;62267;50.112;8.704;2023-02-01T07:33:29;11.93;;;4.90;;
1262;SDS011;62267;50.112;8.704;2023-02-01T07:35:56;12.43;;;5.00;;
1262;SDS011;62267;50.112;8.704;2023-02-01T07:38:23;8.63;;;4.83;;
1262;SDS011;62267;50.112;8.704;2023-02-01T07:40:51;10.03;;;5.47;;
1262;SDS011;62267;50.112;8.704;2023-02-01T07:43:23;10.17;;;4.90;;
1262;SDS011;62267;50.112;8.704;2023-02-01T07:45:51;12.33;;;4.50;;
1262;SDS011;62267;50.112;8.704;2023-02-01T07:48:19;9.03;;;5.20;;
1262;SDS011;62267;50.112;8.704;2023-02-01T07:50:46;9.27;;;5.63;;
1262;SDS011;62267;50.112;8.704;2023-02-01T07:53:13;11.47;;;5.37;;
1262;SDS011;62267;50.112;8.704;2023-02-01T07:55:40;13.57;;;5.17;;
1262;SDS011;62267;50.112;8.704;2023-02-01T07:58:08;7.80;;;4.90;;
1262;SDS011;62267;50.112;8.704;2023-02-01T08:00:35;7.67;;;4.43;;
1262;SDS011;62267;50.112;8.704;2023-02-01T08:03:21;8.27;;;4.47;;
1262;SDS011;62267;50.112;8.704;2023-02-01T08:05:53;8.33;;;4.50;;
1262;SDS011;62267;50.112;8.704;2023-02-01T08:08:21;9.53;;;3.87;;
1262;SDS011;62267;50.112;8.704;2023-02-01T08:10:50;10.30;;;4.40;;
1262;SDS011;62267;50.112;8.704;2023-02-01T08:13:17;5.30;;;4.23;;
1262;SDS011;62267;50.112;8.704;2023-02-01T08:15:45;10.23;;;4.80;;
1262;SDS011;62267;50.112;8.704;2023-02-01T08:18:12;15.70;;;5.77;;
1262;SDS011;62267;50.112;8.704;2023-02-01T08:20:42;10.03;;;4.40;;
1262;SDS011;62267;50.112;8.704;2023-02-01T08:23:12;6.87;;;4.30;;
1262;SDS011;62267;50.112;8.704;2023-02-01T08:25:39;8.47;;;4.70;;
1262;SDS011;62267;50.112;8.704;2023-02-01T08:28:07;8.03;;;4.80;;
1262;SDS011;62267;50.112;8.704;2023-02-01T08:30:35;8.63;;;4.83;;
1262;SDS011;62267;50.112;8.704;2023-02-01T08:33:03;12.80;;;5.07;;
1262;SDS011;62267;50.112;8.704;2023-02-01T08:35:32;7.70;;;4.20;;
1262;SDS011;62267;50.112;8.704;2023-02-01T08:38:09;11.57;;;4.60;;
1262;SDS011;62267;50.112;8.704;2023-02-01T08:40:36;11.47;;;5.27;;
1262;SDS011;62267;50.112;8.704;2023-02-01T08:43:04;11.37;;;5.57;;
1262;SDS011;62267;50.112;8.704;2023-02-01T08:45:31;10.63;;;4.70;;
1262;SDS011;62267;50.112;8.704;2023-02-01T08:47:58;20.40;;;5.07;;
1262;SDS011;62267;50.112;8.704;2023-02-01T08:50:26;14.87;;;4.40;;
1262;SDS011;62267;50.112;8.704;2023-02-01T08:52:54;11.43;;;4.90;;
1262;SDS011;62267;50.112;8.704;2023-02-01T08:55:21;12.70;;;4.90;;
1262;SDS011;62267;50.112;8.704;2023-02-01T08:57:49;13.03;;;4.47;;
1262;SDS011;62267;50.112;8.704;2023-02-01T09:00:17;7.80;;;4.40;;
1262;SDS011;62267;50.112;8.704;2023-02-01T09:02:45;11.30;;;4.67;;
1262;SDS011;62267;50.112;8.704;2023-02-01T09:05:12;9.70;;;4.83;;
1262;SDS011;62267;50.112;8.704;2023-02-01T09:07:42;9.60;;;4.00;;
1262;SDS011;62267;50.112;8.704;2023-02-01T09:10:10;8.03;;;4.93;;
1262;SDS011;62267;50.112;8.704;2023-02-01T09:12:37;6.87;;;3.97;;
1262;SDS011;62267;50.112;8.704;2023-02-01T09:15:04;6.30;;;4.43;;
1262;SDS011;62267;50.112;8.704;2023-02-01T09:17:33;6.80;;;4.47;;
1262;SDS011;62267;50.112;8.704;2023-02-01T09:20:01;7.37;;;4.30;;
1262;SDS011;62267;50.112;8.704;2023-02-01T09:22:29;6.67;;;4.40;;
1262;SDS011;62267;50.112;8.704;2023-02-01T09:24:57;10.43;;;3.80;;
1262;SDS011;62267;50.112;8.704;2023-02-01T09:27:24;12.37;;;4.67;;
1262;SDS011;62267;50.112;8.704;2023-02-01T09:29:51;11.87;;;4.40;;
1262;SDS011;62267;50.112;8.704;2023-02-01T09:32:21;9.50;;;4.67;;
1262;SDS011;62267;50.112;8.704;2023-02-01T09:34:49;8.03;;;4.20;;
1262;SDS011;62267;50.112;8.704;2023-02-01T09:37:16;8.70;;;4.17;;
1262;SDS011;62267;50.112;8.704;2023-02-01T09:39:44;10.33;;;4.50;;
1262;SDS011;62267;50.112;8.704;2023-02-01T09:44:58;8.93;;;4.20;;
1262;SDS011;62267;50.112;8.704;2023-02-01T09:47:28;8.83;;;4.33;;
1262;SDS011;62267;50.112;8.704;2023-02-01T09:49:58;8.20;;;4.23;;
1262;SDS011;62267;50.112;8.704;2023-02-01T09:52:29;6.07;;;4.33;;
1262;SDS011;62267;50.112;8.704;2023-02-01T09:54:59;11.30;;;5.03;;
1262;SDS011;62267;50.112;8.704;2023-02-01T09:57:38;11.33;;;6.90;;
1262;SDS011;62267;50.112;8.704;2023-02-01T10:00:12;10.17;;;4.93;;
1262;SDS011;62267;50.112;8.704;2023-02-01T10:02:41;7.83;;;4.20;;
1262;SDS011;62267;50.112;8.704;2023-02-01T10:05:12;13.43;;;5.00;;
1262;SDS011;62267;50.112;8.704;2023-02-01T10:07:43;9.87;;;4.83;;
1262;SDS011;62267;50.112;8.704;2023-02-01T10:10:20;9.20;;;4.50;;
1262;SDS011;62267;50.112;8.704;2023-02-01T10:16:21;9.70;;;4.83;;
1262;SDS011;62267;50.112;8.704;2023-02-01T10:18:39;6.83;;;4.30;;
1262;SDS011;62267;50.112;8.704;2023-02-01T10:21:16;9.00;;;4.30;;
1262;SDS011;62267;50.112;8.704;2023-02-01T10:26:20;5.90;;;3.67;;
1262;SDS011;62267;50.112;8.704;2023-02-01T10:28:52;8.77;;;5.00;;
1262;SDS011;62267;50.112;8.704;2023-02-01T10:31:20;9.03;;;4.93;;
1262;SDS011;62267;50.112;8.704;2023-02-01T10:33:49;7.73;;;4.30;;
1262;SDS011;62267;50.112;8.704;2023-02-01T10:36:20;9.97;;;4.80;;
1262;SDS011;62267;50.112;8.704;2023-02-01T10:38:48;13.13;;;4.47;;
1262;SDS011;62267;50.112;8.704;2023-02-01T10:41:16;8.10;;;3.90;;
1262;SDS011;62267;50.112;8.704;2023-02-01T10:43:48;7.60;;;3.90;;
1262;SDS011;62267;50.112;8.704;2023-02-01T10:46:16;12.00;;;4.70;;
1262;SDS011;62267;50.112;8.704;2023-02-01T10:48:45;6.63;;;3.90;;
1262;SDS011;62267;50.112;8.704;2023-02-01T10:51:16;13.40;;;3.90;;
1262;SDS011;62267;50.112;8.704;2023-02-01T10:54:05;11.07;;;3.57;;
1262;SDS011;62267;50.112;8.704;2023-02-01T10:56:38;8.40;;;4.90;;
1262;SDS011;62267;50.112;8.704;2023-02-01T10:59:06;10.00;;;4.73;;
1262;SDS011;62267;50.112;8.704;2023-02-01T11:01:34;9.60;;;3.60;;
1262;SDS011;62267;50.112;8.704;2023-02-01T11:04:05;10.77;;;4.47;;
1262;SDS011;62267;50.112;8.704;2023-02-01T11:06:33;8.40;;;4.50;;
1262;SDS011;62267;50.112;8.704;2023-02-01T11:11:52;6.13;;;3.63;;
1262;SDS011;62267;50.112;8.704;2023-02-01T11:14:27;8.97;;;3.90;;
1262;SDS011;62267;50.112;8.704;2023-02-01T11:17:00;10.10;;;3.73;;
1262;SDS011;62267;50.112;8.704;2023-02-01T11:19:30;6.37;;;4.10;;
1262;SDS011;62267;50.112;8.704;2023-02-01T11:21:58;7.33;;;4.97;;
1262;SDS011;62267;50.112;8.704;2023-02-01T11:24:28;11.10;;;4.37;;
1262;SDS011;62267;50.112;8.704;2023-02-01T11:26:58;10.20;;;3.80;;
1262;SDS011;62267;50.112;8.704;2023-02-01T11:29:35;7.67;;;4.13;;
1262;SDS011;62267;50.112;8.704;2023-02-01T11:32:04;8.20;;;4.20;;
1262;SDS011;62267;50.112;8.704;2023-02-01T11:34:35;9.93;;;4.13;;
1262;SDS011;62267;50.112;8.704;2023-02-01T11:37:03;10.37;;;4.17;;
1262;SDS011;62267;50.112;8.704;2023-02-01T11:39:31;5.97;;;3.90;;
1262;SDS011;62267;50.112;8.704;2023-02-01T11:42:15;12.93;;;5.23;;
1262;SDS011;62267;50.112;8.704;2023-02-01T11:44:43;6.67;;;3.83;;
1262;SDS011;62267;50.112;8.704;2023-02-01T11:47:21;6.67;;;4.30;;
1262;SDS011;62267;50.112;8.704;2023-02-01T11:49:50;7.70;;;4.33;;
1262;SDS011;62267;50.112;8.704;2023-02-01T11:57:23;10.40;;;4.20;;
1262;SDS011;62267;50.112;8.704;2023-02-01T11:59:57;8.73;;;4.60;;
1262;SDS011;62267;50.112;8.704;2023-02-01T12:10:58;6.40;;;3.47;;
1262;SDS011;62267;50.112;8.704;2023-02-01T12:16:28;7.87;;;4.37;;
1262;SDS011;62267;50.112;8.704;2023-02-01T12:19:15;8.03;;;4.33;;
1262;SDS011;62267;50.112;8.704;2023-02-01T12:24:39;8.60;;;3.90;;
1262;SDS011;62267;50.112;8.704;2023-02-01T12:27:19;20.13;;;6.07;;
1262;SDS011;62267;50.112;8.704;2023-02-01T12:29:55;6.53;;;3.53;;
1262;SDS011;62267;50.112;8.704;2023-02-01T12:35:13;4.70;;;3.70;;
1262;SDS011;62267;50.112;8.704;2023-02-01T12:37:46;10.50;;;5.97;;
1262;SDS011;62267;50.112;8.704;2023-02-01T12:50:43;10.30;;;5.30;;
1262;SDS011;62267;50.112;8.704;2023-02-01T12:53:15;8.77;;;4.07;;
1262;SDS011;62267;50.112;8.704;2023-02-01T12:55:47;5.70;;;3.67;;
1262;SDS011;62267;50.112;8.704;2023-02-01T12:58:18;9.00;;;4.50;;
1262;SDS011;62267;50.112;8.704;2023-02-01T13:00:49;11.67;;;4.13;;
1262;SDS011;62267;50.112;8.704;2023-02-01T13:06:10;15.70;;;5.10;;
1262;SDS011;62267;50.112;8.704;2023-02-01T13:08:47;6.70;;;3.90;;
1262;SDS011;62267;50.112;8.704;2023-02-01T13:11:17;11.37;;;4.10;;
1262;SDS011;62267;50.112;8.704;2023-02-01T13:13:56;9.00;;;4.13;;
1262;SDS011;62267;50.112;8.704;2023-02-01T13:16:35;19.67;;;4.40;;
1262;SDS011;62267;50.112;8.704;2023-02-01T13:19:24;8.20;;;3.97;;
1262;SDS011;62267;50.112;8.704;2023-02-01T13:21:55;10.80;;;4.10;;
1262;SDS011;62267;50.112;8.704;2023-02-01T13:24:26;5.63;;;3.23;;
1262;SDS011;62267;50.112;8.704;2023-02-01T13:26:54;12.67;;;4.50;;
1262;SDS011;62267;50.112;8.704;2023-02-01T13:29:22;9.73;;;3.80;;
1262;SDS011;62267;50.112;8.704;2023-02-01T13:31:57;10.10;;;5.23;;
1262;SDS011;62267;50.112;8.704;2023-02-01T13:34:43;11.77;;;6.70;;
1262;SDS011;62267;50.112;8.704;2023-02-01T13:37:36;9.33;;;3.93;;
1262;SDS011;62267;50.112;8.704;2023-02-01T13:40:16;19.53;;;5.80;;
1262;SDS011;62267;50.112;8.704;2023-02-01T13:45:17;7.87;;;3.57;;
1262;SDS011;62267;50.112;8.704;2023-02-01T13:47:45;8.63;;;4.10;;
1262;SDS011;62267;50.112;8.704;2023-02-01T13:50:18;12.07;;;3.70;;
1262;SDS011;62267;50.112;8.704;2023-02-01T13:52:58;10.67;;;4.10;;
1262;SDS011;62267;50.112;8.704;2023-02-01T13:58:04;10.80;;;3.93;;
1262;SDS011;62267;50.112;8.704;2023-02-01T14:00:33;5.30;;;3.07;;
1262;SDS011;62267;50.112;8.704;2023-02-01T14:10:47;10.03;;;4.10;;
1262;SDS011;62267;50.112;8.704;2023-02-01T14:23:55;11.53;;;4.20;;
1262;SDS011;62267;50.112;8.704;2023-02-01T14:26:41;5.23;;;2.80;;
1262;SDS011;62267;50.112;8.704;2023-02-01T14:34:21;8.87;;;3.20;;
1262;SDS011;62267;50.112;8.704;2023-02-01T14:36:51;7.90;;;3.50;;
1262;SDS011;62267;50.112;8.704;2023-02-01T14:39:25;12.57;;;4.07;;
1262;SDS011;62267;50.112;8.704;2023-02-01T14:41:54;3.50;;;3.00;;
1262;SDS011;62267;50.112;8.704;2023-02-01T14:44:28;9.00;;;3.37;;
1262;SDS011;62267;50.112;8.704;2023-02-01T14:47:10;4.03;;;3.63;;
1262;SDS011;62267;50.112;8.704;2023-02-01T14:49:41;3.80;;;2.90;;
1262;SDS011;62267;50.112;8.704;2023-02-01T14:52:14;9.30;;;3.20;;
1262;SDS011;62267;50.112;8.704;2023-02-01T14:54:42;9.20;;;3.40;;
1262;SDS011;62267;50.112;8.704;2023-02-01T14:57:18;7.03;;;3.40;;
1262;SDS011;62267;50.112;8.704;2023-02-01T14:59:46;6.53;;;3.00;;
1262;SDS011;62267;50.112;8.704;2023-02-01T15:02:17;11.10;;;3.13;;
1262;SDS011;62267;50.112;8.704;2023-02-01T15:04:46;14.17;;;3.30;;
1262;SDS011;62267;50.112;8.704;2023-02-01T15:07:17;10.60;;;3.40;;
1262;SDS011;62267;50.112;8.704;2023-02-01T15:09:46;5.33;;;3.20;;
1262;SDS011;62267;50.112;8.704;2023-02-01T15:12:18;12.30;;;4.37;;
1262;SDS011;62267;50.112;8.704;2023-02-01T15:15:05;7.20;;;3.60;;
1262;SDS011;62267;50.112;8.704;2023-02-01T15:17:36;7.50;;;3.60;;
1262;SDS011;62267;50.112;8.704;2023-02-01T15:20:14;6.53;;;3.10;;
1262;SDS011;62267;50.112;8.704;2023-02-01T15:25:29;5.43;;;3.43;;
1262;SDS011;62267;50.112;8.704;2023-02-01T15:27:56;7.77;;;3.50;;
1262;SDS011;62267;50.112;8.704;2023-02-01T15:30:28;7.20;;;3.37;;
1262;SDS011;62267;50.112;8.704;2023-02-01T15:33:31;11.07;;;3.60;;
1262;SDS011;62267;50.112;8.704;2023-02-01T15:35:53;8.13;;;3.03;;
1262;SDS011;62267;50.112;8.704;2023-02-01T15:40:56;12.47;;;3.67;;
1262;SDS011;62267;50.112;8.704;2023-02-01T15:43:24;4.60;;;3.50;;
1262;SDS011;62267;50.112;8.704;2023-02-01T15:45:55;11.07;;;4.00;;
1262;SDS011;62267;50.112;8.704;2023-02-01T15:48:24;12.33;;;5.27;;
1262;SDS011;62267;50.112;8.704;2023-02-01T15:50:52;8.30;;;4.00;;
1262;SDS011;62267;50.112;8.704;2023-02-01T15:53:22;7.40;;;3.80;;
1262;SDS011;62267;50.112;8.704;2023-02-01T15:55:54;7.47;;;3.87;;
1262;SDS011;62267;50.112;8.704;2023-02-01T15:58:22;6.27;;;3.00;;
1262;SDS011;62267;50.112;8.704;2023-02-01T16:00:51;11.23;;;3.47;;
1262;SDS011;62267;50.112;8.704;2023-02-01T16:04:00;6.90;;;3.50;;
1262;SDS011;62267;50.112;8.704;2023-02-01T16:08:55;11.97;;;3.73;;
1262;SDS011;62267;50.112;8.704;2023-02-01T16:11:26;4.20;;;3.70;;
1262;SDS011;62267;50.112;8.704;2023-02-01T16:13:57;4.80;;;3.10;;
1262;SDS011;62267;50.112;8.704;2023-02-01T16:16:25;3.50;;;3.10;;
1262;SDS011;62267;50.112;8.704;2023-02-01T16:18:53;8.13;;;3.53;;
1262;SDS011;62267;50.112;8.704;2023-02-01T16:21:20;7.10;;;3.53;;
1262;SDS011;62267;50.112;8.704;2023-02-01T16:23:48;7.40;;;3.33;;
1262;SDS011;62267;50.112;8.704;2023-02-01T16:26:16;7.43;;;3.20;;
1262;SDS011;62267;50.112;8.704;2023-02-01T16:28:44;5.13;;;3.10;;
1262;SDS011;62267;50.112;8.704;2023-02-01T16:31:15;8.70;;;3.40;;
1262;SDS011;62267;50.112;8.704;2023-02-01T16:33:49;5.23;;;3.60;;
1262;SDS011;62267;50.112;8.704;2023-02-01T16:36:17;4.20;;;2.70;;
1262;SDS011;62267;50.112;8.704;2023-02-01T16:38:46;4.67;;;3.40;;
1262;SDS011;62267;50.112;8.704;2023-02-01T16:41:19;10.33;;;4.13;;
1262;SDS011;62267;50.112;8.704;2023-02-01T16:43:54;7.97;;;3.33;;
1262;SDS011;62267;50.112;8.704;2023-02-01T16:46:23;7.43;;;3.67;;
1262;SDS011;62267;50.112;8.704;2023-02-01T16:48:53;7.97;;;3.03;;
1262;SDS011;62267;50.112;8.704;2023-02-01T16:51:20;9.60;;;3.30;;
1262;SDS011;62267;50.112;8.704;2023-02-01T16:53:48;7.40;;;3.53;;
1262;SDS011;62267;50.112;8.704;2023-02-01T16:56:24;5.70;;;3.43;;
1262;SDS011;62267;50.112;8.704;2023-02-01T16:58:52;7.93;;;3.77;;
1262;SDS011;62267;50.112;8.704;2023-02-01T17:01:20;5.40;;;3.13;;